createdAt,value
2018-07-13T00:04:59.780Z,6.00
2018-07-13T02:20:57.982Z,5.50
2018-07-13T02:27:46.116Z,5.80
2018-07-13T02:37:58.516Z,6.20
2018-07-13T02:41:23.442Z,6.10
2018-07-13T02:44:48.144Z,5.70
2018-07-13T02:48:12.824Z,6.10
2018-07-13T02:51:37.424Z,6.40
2018-07-13T02:55:02.085Z,6.13
2018-07-13T02:58:26.410Z,6.70
2018-07-13T03:01:51.080Z,7.13
2018-07-13T03:05:15.852Z,6.53
2018-07-13T03:08:40.479Z,6.70
2018-07-13T03:12:05.098Z,6.73
2018-07-13T03:15:29.762Z,6.17
2018-07-13T03:18:54.416Z,6.57
2018-07-13T03:22:19.112Z,6.43
2018-07-13T03:25:43.740Z,7.07
2018-07-13T03:29:08.608Z,6.00
2018-07-13T03:32:33.288Z,5.63
2018-07-13T03:35:57.899Z,6.47
2018-07-13T03:39:22.591Z,7.73
2018-07-13T03:42:47.185Z,6.70
2018-07-13T03:46:11.791Z,6.67
2018-07-13T03:49:36.453Z,6.53
2018-07-13T03:53:01.077Z,6.00
2018-07-13T03:56:25.708Z,5.70
2018-07-13T03:59:50.599Z,5.90
2018-07-13T04:03:15.225Z,6.40
2018-07-13T04:06:39.863Z,6.10
2018-07-13T04:10:04.679Z,7.13
2018-07-13T04:13:29.411Z,6.50
2018-07-13T04:16:54.122Z,7.00
2018-07-13T04:20:18.829Z,6.30
2018-07-13T04:23:43.556Z,6.57
2018-07-13T04:27:08.384Z,7.33
2018-07-13T04:30:33.139Z,7.23
2018-07-13T04:33:58.810Z,7.40
2018-07-13T04:37:23.553Z,8.33
2018-07-13T04:40:48.364Z,8.13
2018-07-13T04:44:13.104Z,7.00
2018-07-13T04:47:38.010Z,6.80
2018-07-13T04:51:02.768Z,8.17
2018-07-13T04:54:27.567Z,7.63
2018-07-13T04:57:52.588Z,7.80
2018-07-13T05:01:18.578Z,8.47
2018-07-13T05:04:43.564Z,8.33
2018-07-13T05:08:08.804Z,9.37
2018-07-13T05:11:33.528Z,9.07
2018-07-13T05:14:58.488Z,10.00
2018-07-13T05:18:23.220Z,8.90
2018-07-13T05:21:48.058Z,10.17
2018-07-13T05:25:12.841Z,8.73
2018-07-13T05:28:37.638Z,8.87
2018-07-13T05:32:02.404Z,9.37
2018-07-13T05:35:27.169Z,8.97
2018-07-13T05:38:52.421Z,10.53
2018-07-13T05:42:17.412Z,10.13
2018-07-13T05:45:42.145Z,9.87
2018-07-13T05:49:06.893Z,9.07
2018-07-13T05:52:31.601Z,12.90
2018-07-13T05:55:57.389Z,9.60
2018-07-13T05:59:21.720Z,7.87
2018-07-13T06:02:46.479Z,8.33
2018-07-13T06:06:11.217Z,9.43
2018-07-13T06:09:35.983Z,7.30
2018-07-13T06:13:00.769Z,8.87
2018-07-13T06:16:25.432Z,8.23
2018-07-13T06:19:50.174Z,8.00
2018-07-13T06:23:15.056Z,8.10
2018-07-13T06:26:39.742Z,11.07
2018-07-13T06:30:05.182Z,10.00
2018-07-13T06:33:29.888Z,8.23
2018-07-13T06:36:54.396Z,9.10
2018-07-13T06:40:19.130Z,8.17
2018-07-13T06:43:43.955Z,14.27
2018-07-13T06:47:08.257Z,7.67
2018-07-13T06:50:33.101Z,7.37
2018-07-13T06:53:58.872Z,7.80
2018-07-13T06:57:34.891Z,9.67
2018-07-13T07:01:08.789Z,7.00
2018-07-13T07:04:34.843Z,8.17
2018-07-13T07:07:59.597Z,7.33
2018-07-13T07:11:24.089Z,8.60
2018-07-13T07:14:50.101Z,8.83
2018-07-13T07:18:14.834Z,8.43
2018-07-13T07:21:39.607Z,7.30
2018-07-13T07:25:04.409Z,7.33
2018-07-13T07:28:29.703Z,7.07
2018-07-13T07:31:54.497Z,10.07
2018-07-13T07:35:19.290Z,7.10
2018-07-13T07:38:45.030Z,8.40
2018-07-13T07:42:09.883Z,7.27
2018-07-13T07:45:34.708Z,6.63
2018-07-13T07:48:59.619Z,7.27
2018-07-13T07:52:24.519Z,8.73
2018-07-13T07:55:49.383Z,8.50
2018-07-13T07:59:14.193Z,7.60
2018-07-13T08:02:39.118Z,7.27
2018-07-13T08:06:04.035Z,9.63
2018-07-13T08:09:28.836Z,6.63
2018-07-13T08:12:53.649Z,6.03
2018-07-13T08:16:18.444Z,7.10
2018-07-13T08:19:43.231Z,7.93
2018-07-13T08:23:11.487Z,7.60
2018-07-13T08:26:36.324Z,8.97
2018-07-13T08:30:02.345Z,7.77
2018-07-13T08:33:27.082Z,9.17
2018-07-13T08:36:51.882Z,8.53
2018-07-13T08:40:16.774Z,7.70
2018-07-13T08:43:41.632Z,8.80
2018-07-13T08:47:07.547Z,9.10
2018-07-13T08:50:32.726Z,8.03
2018-07-13T08:53:57.679Z,9.00
2018-07-13T08:57:22.447Z,7.17
2018-07-13T09:00:47.484Z,8.20
2018-07-13T09:04:12.501Z,10.73
2018-07-13T09:07:37.889Z,9.90
2018-07-13T09:11:02.768Z,8.97
2018-07-13T09:14:27.575Z,9.47
2018-07-13T09:17:52.423Z,8.50
2018-07-13T09:21:17.323Z,9.00
2018-07-13T09:24:42.309Z,7.03
2018-07-13T09:28:07.450Z,9.20
2018-07-13T09:31:33.505Z,10.40
2018-07-13T09:34:58.285Z,9.47
2018-07-13T09:38:22.718Z,7.27
2018-07-13T09:41:47.443Z,7.63
2018-07-13T09:45:13.199Z,9.93
2018-07-13T09:48:37.936Z,10.10
2018-07-13T09:52:03.341Z,7.63
2018-07-13T09:55:28.802Z,7.27
2018-07-13T09:58:54.521Z,8.43
2018-07-13T10:02:19.209Z,5.07
2018-07-13T10:05:43.979Z,5.77
2018-07-13T10:09:08.811Z,6.10
2018-07-13T10:12:33.534Z,7.40
2018-07-13T10:15:59.149Z,5.73
2018-07-13T10:19:24.135Z,5.93
2018-07-13T10:22:49.192Z,6.17
2018-07-13T10:26:22.429Z,5.63
2018-07-13T10:29:54.471Z,5.77
2018-07-13T10:33:21.001Z,5.73
2018-07-13T10:36:57.669Z,6.10
2018-07-13T10:40:22.128Z,4.90
2018-07-13T10:43:47.130Z,6.53
2018-07-13T10:47:11.640Z,7.80
2018-07-13T10:50:36.502Z,4.37
2018-07-13T10:54:01.406Z,4.87
2018-07-13T10:57:28.870Z,4.40
2018-07-13T11:00:53.619Z,4.87
2018-07-13T11:04:18.256Z,4.73
2018-07-13T11:07:44.093Z,4.30
2018-07-13T11:11:09.091Z,3.90
2018-07-13T11:14:33.833Z,4.27
2018-07-13T11:17:58.702Z,4.07
2018-07-13T11:21:23.395Z,4.30
2018-07-13T11:24:48.310Z,4.03
2018-07-13T11:28:13.192Z,5.83
2018-07-13T11:31:38.048Z,4.83
2018-07-13T11:35:02.962Z,4.53
2018-07-13T11:38:27.865Z,4.30
2018-07-13T11:41:52.725Z,4.13
2018-07-13T11:45:17.506Z,5.10
2018-07-13T11:48:43.326Z,4.50
2018-07-13T11:52:08.120Z,4.70
2018-07-13T11:55:32.423Z,4.80
2018-07-13T11:58:57.178Z,4.73
2018-07-13T12:02:21.903Z,4.53
2018-07-13T12:05:46.756Z,5.80
2018-07-13T12:09:11.578Z,4.50
2018-07-13T12:12:36.361Z,4.37
2018-07-13T12:16:01.205Z,7.13
2018-07-13T12:19:25.934Z,5.23
2018-07-13T12:22:50.976Z,4.80
2018-07-13T12:26:15.454Z,4.80
2018-07-13T12:29:40.263Z,4.97
2018-07-13T12:33:06.201Z,4.90
2018-07-13T12:36:30.961Z,4.40
2018-07-13T12:39:55.823Z,5.03
2018-07-13T12:43:20.813Z,5.70
2018-07-13T12:46:45.713Z,4.43
2018-07-13T12:50:10.573Z,5.57
2018-07-13T12:53:35.431Z,4.93
2018-07-13T12:57:00.289Z,4.60
2018-07-13T13:00:25.237Z,4.67
2018-07-13T13:03:49.678Z,5.07
2018-07-13T13:07:14.392Z,4.53
2018-07-13T13:10:39.340Z,4.30
2018-07-13T13:14:04.280Z,4.47
2018-07-13T13:17:28.640Z,4.23
2018-07-13T13:20:52.952Z,4.47
2018-07-13T13:24:17.641Z,4.97
2018-07-13T13:27:42.337Z,4.40
2018-07-13T13:31:07.138Z,4.27
2018-07-13T13:34:31.881Z,3.93
2018-07-13T13:37:56.690Z,4.57
2018-07-13T13:41:21.569Z,4.67
2018-07-13T13:44:46.996Z,4.30
2018-07-13T13:48:11.679Z,4.40
2018-07-13T13:51:36.404Z,3.73
2018-07-13T13:55:01.179Z,4.20
2018-07-13T13:58:25.866Z,4.40
2018-07-13T14:01:50.637Z,4.30
2018-07-13T14:05:15.403Z,4.62
2018-07-13T14:08:40.133Z,5.97
2018-07-13T14:12:05.235Z,4.00
2018-07-13T14:15:29.877Z,4.53
2018-07-13T14:18:54.686Z,4.80
2018-07-13T14:22:19.421Z,4.50
2018-07-13T14:25:44.413Z,4.40
2018-07-13T14:29:10.442Z,3.80
2018-07-13T14:32:35.345Z,4.15
2018-07-13T14:35:59.830Z,5.22
2018-07-13T14:39:24.643Z,4.47
2018-07-13T14:42:49.973Z,4.10
2018-07-13T14:46:14.969Z,3.95
2018-07-13T14:49:39.714Z,5.65
2018-07-13T14:53:04.608Z,4.62
2018-07-13T14:56:29.615Z,5.20
2018-07-13T14:59:54.412Z,4.30
2018-07-13T15:03:20.445Z,4.12
2018-07-13T15:06:45.318Z,4.55
2018-07-13T15:10:10.736Z,4.10
2018-07-13T15:13:35.662Z,4.08
2018-07-13T15:17:00.479Z,3.70
2018-07-13T15:20:25.321Z,4.12
2018-07-13T15:23:50.139Z,4.70
2018-07-13T15:27:15.696Z,3.62
2018-07-13T15:30:40.543Z,3.83
2018-07-13T15:34:05.692Z,4.05
2018-07-13T15:37:30.457Z,4.47
2018-07-13T15:40:55.214Z,4.40
2018-07-13T15:44:19.679Z,5.28
2018-07-13T15:47:44.378Z,4.53
2018-07-13T15:51:09.166Z,4.17
2018-07-13T15:54:33.865Z,4.22
2018-07-13T15:57:58.525Z,3.72
2018-07-13T16:01:24.379Z,4.50
2018-07-13T16:04:53.196Z,4.25
2018-07-13T16:08:17.717Z,4.28
2018-07-13T16:11:42.825Z,11.48
2018-07-13T16:15:07.772Z,6.12
2018-07-13T16:18:33.428Z,7.20
2018-07-13T16:21:57.884Z,6.33
2018-07-13T16:25:22.634Z,5.47
2018-07-13T16:28:47.394Z,4.37
2018-07-13T16:32:12.238Z,4.40
2018-07-13T16:35:36.908Z,5.37
2018-07-13T16:39:01.766Z,4.10
2018-07-13T16:42:26.554Z,5.15
2018-07-13T16:45:51.328Z,3.77
2018-07-13T16:49:16.006Z,4.42
2018-07-13T16:52:44.295Z,4.60
2018-07-13T16:56:09.026Z,6.45
2018-07-13T16:59:34.661Z,4.00
2018-07-13T17:02:59.414Z,4.37
2018-07-13T17:06:25.720Z,4.95
2018-07-13T17:09:50.455Z,4.62
2018-07-13T17:13:16.542Z,4.80
2018-07-13T17:16:41.305Z,4.28
2018-07-13T17:20:06.103Z,4.42
2018-07-13T17:23:30.498Z,4.15
2018-07-13T17:26:55.268Z,4.80
2018-07-13T17:30:21.887Z,4.08
2018-07-13T17:33:46.634Z,4.17
2018-07-13T17:37:11.478Z,4.03
2018-07-13T17:40:36.241Z,6.25
2018-07-13T17:44:01.055Z,6.33
2018-07-13T17:47:25.897Z,4.12
2018-07-13T17:50:50.308Z,4.55
2018-07-13T17:54:14.818Z,4.42
2018-07-13T17:57:39.543Z,6.70
2018-07-13T18:01:05.385Z,4.62
2018-07-13T18:04:30.055Z,5.50
2018-07-13T18:07:55.740Z,6.08
2018-07-13T18:11:20.563Z,4.40
2018-07-13T18:14:45.348Z,4.37
2018-07-13T18:18:10.116Z,5.23
2018-07-13T18:21:35.008Z,6.00
2018-07-13T18:24:59.969Z,4.70
2018-07-13T18:28:24.363Z,6.63
2018-07-13T18:31:49.189Z,5.47
2018-07-13T18:35:13.921Z,4.60
2018-07-13T18:38:38.749Z,5.10
2018-07-13T19:50:04.828Z,6.00
2018-07-13T19:53:29.712Z,6.20
2018-07-13T19:56:55.729Z,6.33
2018-07-13T20:00:20.449Z,5.77
2018-07-13T20:03:45.194Z,6.63
2018-07-13T20:07:10.055Z,6.07
2018-07-13T20:10:35.170Z,6.13
2018-07-13T20:13:59.993Z,7.37
2018-07-13T20:17:24.525Z,6.30
2018-07-13T20:20:49.166Z,6.10
2018-07-13T20:24:14.290Z,6.43
2018-07-13T20:27:55.702Z,6.30
2018-07-13T20:31:21.654Z,6.70
2018-07-13T20:34:46.609Z,6.13
2018-07-13T20:38:11.132Z,7.77
2018-07-13T20:41:36.268Z,8.53
2018-07-13T20:45:01.222Z,7.70
2018-07-13T20:48:26.070Z,7.97
2018-07-13T20:51:50.889Z,8.33
2018-07-13T20:55:15.857Z,9.20
2018-07-13T20:58:40.552Z,8.50
2018-07-13T21:02:09.574Z,11.40
2018-07-13T21:05:35.307Z,9.63
2018-07-13T21:08:59.794Z,7.33
2018-07-13T21:12:24.521Z,7.83
2018-07-13T21:15:49.321Z,8.20
2018-07-13T21:19:14.217Z,8.37
2018-07-13T21:22:38.898Z,7.70
2018-07-13T21:26:03.348Z,7.47
2018-07-13T21:29:28.100Z,7.00
2018-07-13T21:32:52.810Z,6.80
2018-07-13T21:36:17.563Z,6.70
2018-07-13T21:39:41.987Z,7.60
2018-07-13T21:43:06.811Z,7.07
2018-07-13T21:46:31.470Z,6.77
2018-07-13T21:49:55.982Z,7.73
2018-07-13T21:53:22.039Z,9.27
2018-07-13T21:56:47.243Z,7.93
2018-07-13T22:00:11.928Z,6.70
2018-07-13T22:03:36.957Z,6.73
2018-07-13T22:07:02.026Z,6.40
2018-07-13T22:10:27.179Z,6.20
2018-07-13T22:13:51.862Z,6.17
2018-07-13T22:17:17.296Z,5.63
2018-07-13T22:20:42.562Z,7.07
2018-07-13T22:24:08.132Z,6.43
2018-07-13T22:27:32.909Z,6.60
2018-07-13T22:30:57.609Z,6.63
2018-07-13T22:34:22.384Z,6.73
2018-07-13T22:37:46.709Z,6.57
2018-07-13T22:41:11.476Z,9.40
2018-07-13T22:44:36.101Z,6.10
2018-07-13T22:48:00.894Z,6.47
2018-07-13T22:51:25.222Z,6.13
2018-07-13T22:54:49.990Z,6.50
2018-07-13T22:58:14.680Z,6.60
2018-07-13T23:01:39.362Z,6.70
2018-07-13T23:05:04.164Z,7.20
2018-07-13T23:08:28.980Z,7.03
2018-07-13T23:11:53.732Z,6.40
2018-07-13T23:15:18.098Z,7.43
2018-07-13T23:18:42.944Z,7.27
2018-07-13T23:22:07.627Z,7.07
2018-07-13T23:25:32.292Z,8.67
2018-07-13T23:28:56.986Z,7.70
2018-07-13T23:32:21.724Z,7.67
2018-07-13T23:35:46.356Z,7.00
2018-07-13T23:39:11.123Z,7.77
2018-07-13T23:42:35.857Z,8.97
2018-07-13T23:46:00.520Z,6.87
2018-07-13T23:49:25.325Z,7.03
2018-07-13T23:52:50.026Z,6.47
2018-07-13T23:56:14.756Z,8.53
2018-07-13T23:59:39.449Z,6.80
